sensor_id;sensor_type;location;lat;lon;timestamp;temperature;humidity
60473;DHT22;46318;52.716;6.444;2023-10-09T00:01:28;14.30;84.50
60473;DHT22;46318;52.716;6.444;2023-10-09T00:03:57;14.30;84.70
60473;DHT22;46318;52.716;6.444;2023-10-09T00:06:26;14.30;84.70
60473;DHT22;46318;52.716;6.444;2023-10-09T00:09:05;14.30;84.80
60473;DHT22;46318;52.716;6.444;2023-10-09T00:11:44;14.30;84.90
60473;DHT22;46318;52.716;6.444;2023-10-09T00:14:11;14.30;85.10
60473;DHT22;46318;52.716;6.444;2023-10-09T00:16:37;14.30;85.20
60473;DHT22;46318;52.716;6.444;2023-10-09T00:19:13;14.30;85.30
60473;DHT22;46318;52.716;6.444;2023-10-09T00:21:44;14.20;85.50
60473;DHT22;46318;52.716;6.444;2023-10-09T00:24:10;14.30;85.50
60473;DHT22;46318;52.716;6.444;2023-10-09T00:26:48;14.20;85.70
60473;DHT22;46318;52.716;6.444;2023-10-09T00:29:15;14.30;85.80
60473;DHT22;46318;52.716;6.444;2023-10-09T00:31:56;14.20;85.90
60473;DHT22;46318;52.716;6.444;2023-10-09T00:34:39;14.20;86.00
60473;DHT22;46318;52.716;6.444;2023-10-09T00:37:09;14.20;86.30
60473;DHT22;46318;52.716;6.444;2023-10-09T00:39:52;14.20;86.40
60473;DHT22;46318;52.716;6.444;2023-10-09T00:42:25;14.20;86.40
60473;DHT22;46318;52.716;6.444;2023-10-09T00:44:56;14.20;86.50
60473;DHT22;46318;52.716;6.444;2023-10-09T00:47:23;14.20;86.80
60473;DHT22;46318;52.716;6.444;2023-10-09T00:49:59;14.20;86.90
60473;DHT22;46318;52.716;6.444;2023-10-09T00:52:41;14.20;87.00
60473;DHT22;46318;52.716;6.444;2023-10-09T00:55:15;14.10;87.20
60473;DHT22;46318;52.716;6.444;2023-10-09T00:57:50;14.20;87.20
60473;DHT22;46318;52.716;6.444;2023-10-09T01:00:23;14.10;87.50
60473;DHT22;46318;52.716;6.444;2023-10-09T01:03:03;14.10;87.70
60473;DHT22;46318;52.716;6.444;2023-10-09T01:05:45;14.10;88.00
60473;DHT22;46318;52.716;6.444;2023-10-09T01:08:34;14.00;88.20
60473;DHT22;46318;52.716;6.444;2023-10-09T01:11:11;14.00;88.20
60473;DHT22;46318;52.716;6.444;2023-10-09T01:13:45;14.00;88.30
60473;DHT22;46318;52.716;6.444;2023-10-09T01:16:12;14.00;88.40
60473;DHT22;46318;52.716;6.444;2023-10-09T01:18:46;14.00;88.50
60473;DHT22;46318;52.716;6.444;2023-10-09T01:21:19;14.00;88.70
60473;DHT22;46318;52.716;6.444;2023-10-09T01:23:55;14.00;88.90
60473;DHT22;46318;52.716;6.444;2023-10-09T01:26:38;14.00;89.20
60473;DHT22;46318;52.716;6.444;2023-10-09T01:29:23;14.10;89.10
60473;DHT22;46318;52.716;6.444;2023-10-09T01:31:54;14.10;89.60
60473;DHT22;46318;52.716;6.444;2023-10-09T01:36:51;14.00;89.50
60473;DHT22;46318;52.716;6.444;2023-10-09T01:39:22;14.00;89.50
60473;DHT22;46318;52.716;6.444;2023-10-09T01:41:56;14.00;89.90
60473;DHT22;46318;52.716;6.444;2023-10-09T01:44:27;14.00;90.10
60473;DHT22;46318;52.716;6.444;2023-10-09T01:47:03;14.00;90.30
60473;DHT22;46318;52.716;6.444;2023-10-09T01:49:36;14.00;90.50
60473;DHT22;46318;52.716;6.444;2023-10-09T01:52:03;14.00;90.50
60473;DHT22;46318;52.716;6.444;2023-10-09T01:54:39;14.00;90.70
60473;DHT22;46318;52.716;6.444;2023-10-09T01:57:12;14.00;91.00
60473;DHT22;46318;52.716;6.444;2023-10-09T01:59:44;14.00;91.00
60473;DHT22;46318;52.716;6.444;2023-10-09T02:02:22;14.00;91.10
60473;DHT22;46318;52.716;6.444;2023-10-09T02:05:06;14.00;91.40
60473;DHT22;46318;52.716;6.444;2023-10-09T02:07:50;14.00;91.50
60473;DHT22;46318;52.716;6.444;2023-10-09T02:10:23;14.00;91.50
60473;DHT22;46318;52.716;6.444;2023-10-09T02:12:50;14.00;91.70
60473;DHT22;46318;52.716;6.444;2023-10-09T02:15:26;14.00;91.70
60473;DHT22;46318;52.716;6.444;2023-10-09T02:18:21;14.00;91.80
60473;DHT22;46318;52.716;6.444;2023-10-09T02:20:50;14.10;91.70
60473;DHT22;46318;52.716;6.444;2023-10-09T02:23:29;14.10;92.00
60473;DHT22;46318;52.716;6.444;2023-10-09T02:26:05;14.10;92.10
60473;DHT22;46318;52.716;6.444;2023-10-09T02:28:35;14.10;92.20
60473;DHT22;46318;52.716;6.444;2023-10-09T02:31:10;14.10;92.40
60473;DHT22;46318;52.716;6.444;2023-10-09T02:33:36;14.10;92.70
60473;DHT22;46318;52.716;6.444;2023-10-09T02:36:08;14.10;92.80
60473;DHT22;46318;52.716;6.444;2023-10-09T02:38:34;14.20;92.90
60473;DHT22;46318;52.716;6.444;2023-10-09T02:41:07;14.20;93.00
60473;DHT22;46318;52.716;6.444;2023-10-09T02:43:37;14.20;93.10
60473;DHT22;46318;52.716;6.444;2023-10-09T02:46:14;14.20;93.10
60473;DHT22;46318;52.716;6.444;2023-10-09T02:48:44;14.20;93.40
60473;DHT22;46318;52.716;6.444;2023-10-09T02:51:19;14.30;93.50
60473;DHT22;46318;52.716;6.444;2023-10-09T02:53:56;14.20;93.70
60473;DHT22;46318;52.716;6.444;2023-10-09T02:56:25;14.30;93.90
60473;DHT22;46318;52.716;6.444;2023-10-09T02:59:13;14.30;94.30
60473;DHT22;46318;52.716;6.444;2023-10-09T03:01:40;14.30;94.30
60473;DHT22;46318;52.716;6.444;2023-10-09T03:04:07;14.30;94.30
60473;DHT22;46318;52.716;6.444;2023-10-09T03:06:37;14.30;94.20
60473;DHT22;46318;52.716;6.444;2023-10-09T03:09:10;14.40;94.30
60473;DHT22;46318;52.716;6.444;2023-10-09T03:11:49;14.40;94.20
60473;DHT22;46318;52.716;6.444;2023-10-09T03:14:28;14.40;94.40
60473;DHT22;46318;52.716;6.444;2023-10-09T03:17:01;14.40;94.70
60473;DHT22;46318;52.716;6.444;2023-10-09T03:19:32;14.40;94.90
60473;DHT22;46318;52.716;6.444;2023-10-09T03:22:04;14.50;95.20
60473;DHT22;46318;52.716;6.444;2023-10-09T03:24:31;14.50;95.40
60473;DHT22;46318;52.716;6.444;2023-10-09T03:26:57;14.60;95.60
60473;DHT22;46318;52.716;6.444;2023-10-09T03:29:24;14.60;95.40
60473;DHT22;46318;52.716;6.444;2023-10-09T03:31:50;14.60;95.60
60473;DHT22;46318;52.716;6.444;2023-10-09T03:34:17;14.70;95.70
60473;DHT22;46318;52.716;6.444;2023-10-09T03:36:45;14.70;95.70
60473;DHT22;46318;52.716;6.444;2023-10-09T03:39:11;14.80;95.90
60473;DHT22;46318;52.716;6.444;2023-10-09T03:41:56;14.80;96.20
60473;DHT22;46318;52.716;6.444;2023-10-09T03:44:25;14.90;96.10
60473;DHT22;46318;52.716;6.444;2023-10-09T03:46:54;14.90;96.30
60473;DHT22;46318;52.716;6.444;2023-10-09T03:49:20;15.00;96.40
60473;DHT22;46318;52.716;6.444;2023-10-09T03:51:51;15.00;96.50
60473;DHT22;46318;52.716;6.444;2023-10-09T03:54:18;15.10;96.40
60473;DHT22;46318;52.716;6.444;2023-10-09T03:56:48;15.10;96.50
60473;DHT22;46318;52.716;6.444;2023-10-09T03:59:21;15.10;96.50
60473;DHT22;46318;52.716;6.444;2023-10-09T04:01:49;15.20;96.50
60473;DHT22;46318;52.716;6.444;2023-10-09T04:04:18;15.20;96.60
60473;DHT22;46318;52.716;6.444;2023-10-09T04:06:48;15.20;96.70
60473;DHT22;46318;52.716;6.444;2023-10-09T04:09:17;15.20;96.60
60473;DHT22;46318;52.716;6.444;2023-10-09T04:11:47;15.20;96.60
60473;DHT22;46318;52.716;6.444;2023-10-09T04:14:42;15.30;96.50
60473;DHT22;46318;52.716;6.444;2023-10-09T04:17:20;15.30;96.50
60473;DHT22;46318;52.716;6.444;2023-10-09T04:19:58;15.30;96.50
60473;DHT22;46318;52.716;6.444;2023-10-09T04:22:44;15.30;96.60
60473;DHT22;46318;52.716;6.444;2023-10-09T04:27:52;15.40;96.30
60473;DHT22;46318;52.716;6.444;2023-10-09T04:30:19;15.40;96.50
60473;DHT22;46318;52.716;6.444;2023-10-09T04:32:45;15.40;96.50
60473;DHT22;46318;52.716;6.444;2023-10-09T04:35:11;15.50;96.70
60473;DHT22;46318;52.716;6.444;2023-10-09T04:37:50;15.50;96.50
60473;DHT22;46318;52.716;6.444;2023-10-09T04:40:29;15.50;96.70
60473;DHT22;46318;52.716;6.444;2023-10-09T04:43:14;15.50;96.80
60473;DHT22;46318;52.716;6.444;2023-10-09T04:45:48;15.60;96.80
60473;DHT22;46318;52.716;6.444;2023-10-09T04:48:33;15.60;96.70
60473;DHT22;46318;52.716;6.444;2023-10-09T04:51:03;15.60;96.80
60473;DHT22;46318;52.716;6.444;2023-10-09T04:53:47;15.60;96.80
60473;DHT22;46318;52.716;6.444;2023-10-09T04:56:25;15.60;97.00
60473;DHT22;46318;52.716;6.444;2023-10-09T04:58:57;15.70;97.00
60473;DHT22;46318;52.716;6.444;2023-10-09T05:01:30;15.70;97.10
60473;DHT22;46318;52.716;6.444;2023-10-09T05:04:09;15.70;97.10
60473;DHT22;46318;52.716;6.444;2023-10-09T05:06:52;15.70;97.10
60473;DHT22;46318;52.716;6.444;2023-10-09T05:09:22;15.70;97.10
60473;DHT22;46318;52.716;6.444;2023-10-09T05:11:49;15.70;97.30
60473;DHT22;46318;52.716;6.444;2023-10-09T05:14:19;15.80;97.30
60473;DHT22;46318;52.716;6.444;2023-10-09T05:16:53;15.70;97.30
60473;DHT22;46318;52.716;6.444;2023-10-09T05:19:23;15.80;97.40
60473;DHT22;46318;52.716;6.444;2023-10-09T05:22:11;15.80;97.50
60473;DHT22;46318;52.716;6.444;2023-10-09T05:25:01;15.80;97.50
60473;DHT22;46318;52.716;6.444;2023-10-09T05:27:28;15.80;97.60
60473;DHT22;46318;52.716;6.444;2023-10-09T05:30:16;15.80;97.70
60473;DHT22;46318;52.716;6.444;2023-10-09T05:32:52;15.80;97.70
60473;DHT22;46318;52.716;6.444;2023-10-09T05:35:24;15.80;97.70
60473;DHT22;46318;52.716;6.444;2023-10-09T05:38:07;15.80;97.80
60473;DHT22;46318;52.716;6.444;2023-10-09T05:40:41;15.80;97.90
60473;DHT22;46318;52.716;6.444;2023-10-09T05:43:09;15.90;98.00
60473;DHT22;46318;52.716;6.444;2023-10-09T05:45:55;15.90;97.90
60473;DHT22;46318;52.716;6.444;2023-10-09T05:48:33;15.90;97.70
60473;DHT22;46318;52.716;6.444;2023-10-09T05:51:19;15.90;97.70
60473;DHT22;46318;52.716;6.444;2023-10-09T05:54:05;15.90;97.90
60473;DHT22;46318;52.716;6.444;2023-10-09T05:56:49;16.00;97.80
60473;DHT22;46318;52.716;6.444;2023-10-09T05:59:33;16.00;97.80
60473;DHT22;46318;52.716;6.444;2023-10-09T06:02:18;16.00;97.80
60473;DHT22;46318;52.716;6.444;2023-10-09T06:05:02;16.00;97.80
60473;DHT22;46318;52.716;6.444;2023-10-09T06:07:48;16.00;97.70
60473;DHT22;46318;52.716;6.444;2023-10-09T06:10:32;16.00;97.70
60473;DHT22;46318;52.716;6.444;2023-10-09T06:13:08;16.00;97.80
60473;DHT22;46318;52.716;6.444;2023-10-09T06:15:54;16.00;97.80
60473;DHT22;46318;52.716;6.444;2023-10-09T06:18:40;16.00;97.80
60473;DHT22;46318;52.716;6.444;2023-10-09T06:21:07;16.10;97.80
60473;DHT22;46318;52.716;6.444;2023-10-09T06:23:56;16.10;97.70
60473;DHT22;46318;52.716;6.444;2023-10-09T06:26:41;16.10;97.60
60473;DHT22;46318;52.716;6.444;2023-10-09T06:29:38;16.10;97.60
60473;DHT22;46318;52.716;6.444;2023-10-09T06:32:14;16.10;97.40
60473;DHT22;46318;52.716;6.444;2023-10-09T06:34:50;16.20;97.40
60473;DHT22;46318;52.716;6.444;2023-10-09T06:37:51;16.20;97.50
60473;DHT22;46318;52.716;6.444;2023-10-09T06:40:30;16.20;97.50
60473;DHT22;46318;52.716;6.444;2023-10-09T06:43:22;16.20;97.30
60473;DHT22;46318;52.716;6.444;2023-10-09T06:45:49;16.20;97.30
60473;DHT22;46318;52.716;6.444;2023-10-09T06:48:27;16.20;97.30
60473;DHT22;46318;52.716;6.444;2023-10-09T06:51:10;16.30;97.40
60473;DHT22;46318;52.716;6.444;2023-10-09T06:53:56;16.30;97.40
60473;DHT22;46318;52.716;6.444;2023-10-09T06:56:30;16.30;97.50
60473;DHT22;46318;52.716;6.444;2023-10-09T06:58:56;16.30;97.60
60473;DHT22;46318;52.716;6.444;2023-10-09T07:01:30;16.30;97.50
60473;DHT22;46318;52.716;6.444;2023-10-09T07:04:08;16.40;97.50
60473;DHT22;46318;52.716;6.444;2023-10-09T07:06:47;16.30;97.50
60473;DHT22;46318;52.716;6.444;2023-10-09T07:09:14;16.30;97.40
60473;DHT22;46318;52.716;6.444;2023-10-09T07:11:44;16.40;97.30
60473;DHT22;46318;52.716;6.444;2023-10-09T07:14:23;16.40;97.30
60473;DHT22;46318;52.716;6.444;2023-10-09T07:19:26;16.40;97.30
60473;DHT22;46318;52.716;6.444;2023-10-09T07:22:13;16.40;97.40
60473;DHT22;46318;52.716;6.444;2023-10-09T07:24:51;16.40;97.50
60473;DHT22;46318;52.716;6.444;2023-10-09T07:27:31;16.50;97.50
60473;DHT22;46318;52.716;6.444;2023-10-09T07:30:15;16.50;97.40
60473;DHT22;46318;52.716;6.444;2023-10-09T07:33:07;16.50;97.30
60473;DHT22;46318;52.716;6.444;2023-10-09T07:35:38;16.50;97.20
60473;DHT22;46318;52.716;6.444;2023-10-09T07:38:11;16.50;97.20
60473;DHT22;46318;52.716;6.444;2023-10-09T07:40:54;16.60;97.20
60473;DHT22;46318;52.716;6.444;2023-10-09T07:43:24;16.60;97.30
60473;DHT22;46318;52.716;6.444;2023-10-09T07:46:16;16.60;97.30
60473;DHT22;46318;52.716;6.444;2023-10-09T07:49:00;16.60;97.40
60473;DHT22;46318;52.716;6.444;2023-10-09T07:51:38;16.60;97.40
60473;DHT22;46318;52.716;6.444;2023-10-09T07:54:09;16.60;97.40
60473;DHT22;46318;52.716;6.444;2023-10-09T07:56:43;16.70;97.50
60473;DHT22;46318;52.716;6.444;2023-10-09T07:59:15;16.70;97.50
60473;DHT22;46318;52.716;6.444;2023-10-09T08:01:45;16.70;97.50
60473;DHT22;46318;52.716;6.444;2023-10-09T08:04:22;16.70;97.40
60473;DHT22;46318;52.716;6.444;2023-10-09T08:07:10;16.80;97.50
60473;DHT22;46318;52.716;6.444;2023-10-09T08:09:47;16.80;97.30
60473;DHT22;46318;52.716;6.444;2023-10-09T08:12:14;16.80;97.40
60473;DHT22;46318;52.716;6.444;2023-10-09T08:15:00;16.80;97.50
60473;DHT22;46318;52.716;6.444;2023-10-09T08:20:30;16.90;97.50
60473;DHT22;46318;52.716;6.444;2023-10-09T08:23:22;16.90;97.30
60473;DHT22;46318;52.716;6.444;2023-10-09T08:26:04;16.90;97.20
60473;DHT22;46318;52.716;6.444;2023-10-09T08:28:43;16.90;97.10
60473;DHT22;46318;52.716;6.444;2023-10-09T08:31:17;16.90;97.10
60473;DHT22;46318;52.716;6.444;2023-10-09T08:33:46;16.90;97.20
60473;DHT22;46318;52.716;6.444;2023-10-09T08:36:23;17.00;97.00
60473;DHT22;46318;52.716;6.444;2023-10-09T08:38:54;17.00;96.80
60473;DHT22;46318;52.716;6.444;2023-10-09T08:41:24;17.00;96.70
60473;DHT22;46318;52.716;6.444;2023-10-09T08:43:56;17.00;96.70
60473;DHT22;46318;52.716;6.444;2023-10-09T08:46:23;17.00;96.80
60473;DHT22;46318;52.716;6.444;2023-10-09T08:48:56;17.00;96.90
60473;DHT22;46318;52.716;6.444;2023-10-09T08:51:25;17.10;96.70
60473;DHT22;46318;52.716;6.444;2023-10-09T08:53:52;17.10;96.60
60473;DHT22;46318;52.716;6.444;2023-10-09T08:56:20;17.10;96.60
60473;DHT22;46318;52.716;6.444;2023-10-09T09:01:17;17.10;96.40
60473;DHT22;46318;52.716;6.444;2023-10-09T09:03:48;17.10;96.10
60473;DHT22;46318;52.716;6.444;2023-10-09T09:06:18;17.10;96.00
60473;DHT22;46318;52.716;6.444;2023-10-09T09:08:45;17.10;96.00
60473;DHT22;46318;52.716;6.444;2023-10-09T09:11:14;17.10;95.80
60473;DHT22;46318;52.716;6.444;2023-10-09T09:13:44;17.20;95.80
60473;DHT22;46318;52.716;6.444;2023-10-09T09:16:25;17.20;95.60
60473;DHT22;46318;52.716;6.444;2023-10-09T09:21:33;17.20;95.50
60473;DHT22;46318;52.716;6.444;2023-10-09T09:24:08;17.20;95.60
60473;DHT22;46318;52.716;6.444;2023-10-09T09:26:43;17.20;95.60
60473;DHT22;46318;52.716;6.444;2023-10-09T09:29:13;17.20;95.70
60473;DHT22;46318;52.716;6.444;2023-10-09T09:31:52;17.20;95.90
60473;DHT22;46318;52.716;6.444;2023-10-09T09:34:23;17.20;96.20
60473;DHT22;46318;52.716;6.444;2023-10-09T09:36:58;17.20;96.30
60473;DHT22;46318;52.716;6.444;2023-10-09T09:39:28;17.20;96.40
60473;DHT22;46318;52.716;6.444;2023-10-09T09:42:00;17.20;96.60
60473;DHT22;46318;52.716;6.444;2023-10-09T09:44:33;17.20;96.80
60473;DHT22;46318;52.716;6.444;2023-10-09T09:47:10;17.20;96.70
60473;DHT22;46318;52.716;6.444;2023-10-09T09:49:42;17.20;96.80
60473;DHT22;46318;52.716;6.444;2023-10-09T09:52:09;17.20;96.80
60473;DHT22;46318;52.716;6.444;2023-10-09T09:54:37;17.20;96.60
60473;DHT22;46318;52.716;6.444;2023-10-09T09:57:04;17.20;96.40
60473;DHT22;46318;52.716;6.444;2023-10-09T09:59:39;17.20;96.60
60473;DHT22;46318;52.716;6.444;2023-10-09T10:02:10;17.20;96.50
60473;DHT22;46318;52.716;6.444;2023-10-09T10:04:39;17.20;96.20
60473;DHT22;46318;52.716;6.444;2023-10-09T10:07:08;17.20;96.30
60473;DHT22;46318;52.716;6.444;2023-10-09T10:09:39;17.30;96.30
60473;DHT22;46318;52.716;6.444;2023-10-09T10:12:10;17.30;96.10
60473;DHT22;46318;52.716;6.444;2023-10-09T10:14:56;17.30;96.00
60473;DHT22;46318;52.716;6.444;2023-10-09T10:20:25;17.40;96.10
60473;DHT22;46318;52.716;6.444;2023-10-09T10:23:17;17.40;96.10
60473;DHT22;46318;52.716;6.444;2023-10-09T10:25:51;17.40;95.80
60473;DHT22;46318;52.716;6.444;2023-10-09T10:28:26;17.40;95.40
60473;DHT22;46318;52.716;6.444;2023-10-09T10:31:05;17.50;95.40
60473;DHT22;46318;52.716;6.444;2023-10-09T10:36:24;17.60;95.00
60473;DHT22;46318;52.716;6.444;2023-10-09T10:39:08;17.60;94.90
60473;DHT22;46318;52.716;6.444;2023-10-09T10:41:57;17.70;94.60
60473;DHT22;46318;52.716;6.444;2023-10-09T10:44:32;17.70;94.40
60473;DHT22;46318;52.716;6.444;2023-10-09T10:47:09;17.80;94.40
60473;DHT22;46318;52.716;6.444;2023-10-09T10:49:56;17.80;94.30
60473;DHT22;46318;52.716;6.444;2023-10-09T10:52:25;17.90;94.20
60473;DHT22;46318;52.716;6.444;2023-10-09T10:55:16;17.90;94.00
60473;DHT22;46318;52.716;6.444;2023-10-09T10:58:00;17.90;93.70
60473;DHT22;46318;52.716;6.444;2023-10-09T11:00:31;17.90;93.70
60473;DHT22;46318;52.716;6.444;2023-10-09T11:03:19;18.00;93.50
60473;DHT22;46318;52.716;6.444;2023-10-09T11:06:09;18.00;93.40
60473;DHT22;46318;52.716;6.444;2023-10-09T11:08:47;18.00;93.30
60473;DHT22;46318;52.716;6.444;2023-10-09T11:11:20;18.10;93.20
60473;DHT22;46318;52.716;6.444;2023-10-09T11:13:47;18.10;93.00
60473;DHT22;46318;52.716;6.444;2023-10-09T11:16:30;18.10;93.00
60473;DHT22;46318;52.716;6.444;2023-10-09T11:19:13;18.20;92.70
60473;DHT22;46318;52.716;6.444;2023-10-09T11:21:55;18.20;92.40
60473;DHT22;46318;52.716;6.444;2023-10-09T11:24:47;18.20;92.30
60473;DHT22;46318;52.716;6.444;2023-10-09T11:27:26;18.20;92.10
60473;DHT22;46318;52.716;6.444;2023-10-09T11:29:58;18.10;92.10
60473;DHT22;46318;52.716;6.444;2023-10-09T11:32:31;18.20;92.00
60473;DHT22;46318;52.716;6.444;2023-10-09T11:35:12;18.20;91.90
60473;DHT22;46318;52.716;6.444;2023-10-09T11:37:57;18.20;92.00
60473;DHT22;46318;52.716;6.444;2023-10-09T11:40:33;18.20;92.00
60473;DHT22;46318;52.716;6.444;2023-10-09T11:43:28;18.30;91.80
60473;DHT22;46318;52.716;6.444;2023-10-09T11:46:13;18.40;91.60
60473;DHT22;46318;52.716;6.444;2023-10-09T11:49:09;18.50;91.30
60473;DHT22;46318;52.716;6.444;2023-10-09T11:51:48;18.80;90.80
60473;DHT22;46318;52.716;6.444;2023-10-09T11:54:35;18.90;90.30
60473;DHT22;46318;52.716;6.444;2023-10-09T11:57:02;19.00;90.20
60473;DHT22;46318;52.716;6.444;2023-10-09T11:59:32;19.00;89.90
60473;DHT22;46318;52.716;6.444;2023-10-09T12:02:08;18.90;89.90
60473;DHT22;46318;52.716;6.444;2023-10-09T12:04:39;18.90;89.80
60473;DHT22;46318;52.716;6.444;2023-10-09T12:07:09;18.90;89.70
60473;DHT22;46318;52.716;6.444;2023-10-09T12:09:39;18.90;89.70
60473;DHT22;46318;52.716;6.444;2023-10-09T12:12:06;18.90;89.80
60473;DHT22;46318;52.716;6.444;2023-10-09T12:14:34;18.90;89.90
60473;DHT22;46318;52.716;6.444;2023-10-09T12:17:07;18.90;90.00
60473;DHT22;46318;52.716;6.444;2023-10-09T12:19:38;18.90;89.90
60473;DHT22;46318;52.716;6.444;2023-10-09T12:22:08;18.90;89.90
60473;DHT22;46318;52.716;6.444;2023-10-09T12:24:41;18.80;89.80
60473;DHT22;46318;52.716;6.444;2023-10-09T12:27:11;18.80;89.70
60473;DHT22;46318;52.716;6.444;2023-10-09T12:29:37;18.80;89.70
60473;DHT22;46318;52.716;6.444;2023-10-09T12:32:06;18.90;89.80
60473;DHT22;46318;52.716;6.444;2023-10-09T12:34:36;18.90;89.70
60473;DHT22;46318;52.716;6.444;2023-10-09T12:37:04;18.90;89.50
60473;DHT22;46318;52.716;6.444;2023-10-09T12:39:30;18.80;89.50
60473;DHT22;46318;52.716;6.444;2023-10-09T12:42:02;18.80;89.50
60473;DHT22;46318;52.716;6.444;2023-10-09T12:44:36;18.80;89.60
60473;DHT22;46318;52.716;6.444;2023-10-09T12:47:08;18.80;89.70
60473;DHT22;46318;52.716;6.444;2023-10-09T12:49:37;18.80;89.70
60473;DHT22;46318;52.716;6.444;2023-10-09T12:52:09;18.70;89.90
60473;DHT22;46318;52.716;6.444;2023-10-09T12:54:42;18.70;89.90
60473;DHT22;46318;52.716;6.444;2023-10-09T12:57:11;18.70;89.90
60473;DHT22;46318;52.716;6.444;2023-10-09T12:59:42;18.70;90.10
60473;DHT22;46318;52.716;6.444;2023-10-09T13:02:17;18.80;90.30
60473;DHT22;46318;52.716;6.444;2023-10-09T13:04:58;18.80;90.10
60473;DHT22;46318;52.716;6.444;2023-10-09T13:07:25;18.80;90.10
60473;DHT22;46318;52.716;6.444;2023-10-09T13:09:54;18.80;90.20
60473;DHT22;46318;52.716;6.444;2023-10-09T13:12:35;18.80;90.20
60473;DHT22;46318;52.716;6.444;2023-10-09T13:15:08;18.80;90.10
60473;DHT22;46318;52.716;6.444;2023-10-09T13:17:36;18.80;90.00
60473;DHT22;46318;52.716;6.444;2023-10-09T13:20:06;18.90;90.00
60473;DHT22;46318;52.716;6.444;2023-10-09T13:22:42;18.90;89.90
60473;DHT22;46318;52.716;6.444;2023-10-09T13:25:09;18.80;89.90
60473;DHT22;46318;52.716;6.444;2023-10-09T13:27:44;18.90;89.80
60473;DHT22;46318;52.716;6.444;2023-10-09T13:30:20;18.90;89.70
60473;DHT22;46318;52.716;6.444;2023-10-09T13:32:50;18.90;89.70
60473;DHT22;46318;52.716;6.444;2023-10-09T13:35:19;18.80;89.80
60473;DHT22;46318;52.716;6.444;2023-10-09T13:37:53;18.90;89.90
60473;DHT22;46318;52.716;6.444;2023-10-09T13:40:22;18.80;89.90
60473;DHT22;46318;52.716;6.444;2023-10-09T13:42:55;18.80;90.00
60473;DHT22;46318;52.716;6.444;2023-10-09T13:45:27;18.80;89.60
60473;DHT22;46318;52.716;6.444;2023-10-09T13:47:57;18.80;89.20
60473;DHT22;46318;52.716;6.444;2023-10-09T13:50:26;18.80;88.90
60473;DHT22;46318;52.716;6.444;2023-10-09T13:53:01;18.80;88.90
60473;DHT22;46318;52.716;6.444;2023-10-09T13:55:37;18.80;88.90
60473;DHT22;46318;52.716;6.444;2023-10-09T13:58:09;18.80;88.70
60473;DHT22;46318;52.716;6.444;2023-10-09T14:00:40;18.80;88.70
60473;DHT22;46318;52.716;6.444;2023-10-09T14:03:11;18.80;88.80
60473;DHT22;46318;52.716;6.444;2023-10-09T14:05:39;18.80;89.00
60473;DHT22;46318;52.716;6.444;2023-10-09T14:08:19;18.70;89.10
60473;DHT22;46318;52.716;6.444;2023-10-09T14:10:49;18.70;89.20
60473;DHT22;46318;52.716;6.444;2023-10-09T14:13:16;18.70;89.10
60473;DHT22;46318;52.716;6.444;2023-10-09T14:15:42;18.70;89.00
60473;DHT22;46318;52.716;6.444;2023-10-09T14:18:09;18.60;88.90
60473;DHT22;46318;52.716;6.444;2023-10-09T14:20:40;18.60;88.90
60473;DHT22;46318;52.716;6.444;2023-10-09T14:23:07;18.60;88.90
60473;DHT22;46318;52.716;6.444;2023-10-09T14:25:34;18.60;88.70
60473;DHT22;46318;52.716;6.444;2023-10-09T14:28:09;18.60;88.50
60473;DHT22;46318;52.716;6.444;2023-10-09T14:30:37;18.70;88.50
60473;DHT22;46318;52.716;6.444;2023-10-09T14:33:11;18.70;88.50
60473;DHT22;46318;52.716;6.444;2023-10-09T14:35:39;18.80;88.40
60473;DHT22;46318;52.716;6.444;2023-10-09T14:38:06;18.80;88.30
60473;DHT22;46318;52.716;6.444;2023-10-09T14:40:45;18.80;88.10
60473;DHT22;46318;52.716;6.444;2023-10-09T14:43:11;18.80;87.90
60473;DHT22;46318;52.716;6.444;2023-10-09T14:45:49;18.80;87.90
60473;DHT22;46318;52.716;6.444;2023-10-09T14:48:19;18.80;87.90
60473;DHT22;46318;52.716;6.444;2023-10-09T14:50:52;18.80;87.90
60473;DHT22;46318;52.716;6.444;2023-10-09T14:53:21;18.80;87.70
60473;DHT22;46318;52.716;6.444;2023-10-09T14:55:58;18.80;87.60
60473;DHT22;46318;52.716;6.444;2023-10-09T14:58:29;18.80;87.60
60473;DHT22;46318;52.716;6.444;2023-10-09T15:01:07;18.80;87.80
60473;DHT22;46318;52.716;6.444;2023-10-09T15:03:36;18.80;87.80
60473;DHT22;46318;52.716;6.444;2023-10-09T15:06:05;18.80;87.90
60473;DHT22;46318;52.716;6.444;2023-10-09T15:08:36;18.80;88.00
60473;DHT22;46318;52.716;6.444;2023-10-09T15:11:04;18.80;88.10
60473;DHT22;46318;52.716;6.444;2023-10-09T15:13:31;18.70;88.10
60473;DHT22;46318;52.716;6.444;2023-10-09T15:15:57;18.70;88.10
60473;DHT22;46318;52.716;6.444;2023-10-09T15:18:24;18.70;88.30
60473;DHT22;46318;52.716;6.444;2023-10-09T15:20:51;18.70;88.40
60473;DHT22;46318;52.716;6.444;2023-10-09T15:23:17;18.70;88.50
60473;DHT22;46318;52.716;6.444;2023-10-09T15:25:46;18.70;88.60
60473;DHT22;46318;52.716;6.444;2023-10-09T15:28:16;18.70;88.70
60473;DHT22;46318;52.716;6.444;2023-10-09T15:30:42;18.70;88.70
60473;DHT22;46318;52.716;6.444;2023-10-09T15:33:08;18.70;88.80
60473;DHT22;46318;52.716;6.444;2023-10-09T15:35:36;18.70;88.90
60473;DHT22;46318;52.716;6.444;2023-10-09T15:38:03;18.60;89.00
60473;DHT22;46318;52.716;6.444;2023-10-09T15:40:33;18.60;89.10
60473;DHT22;46318;52.716;6.444;2023-10-09T15:43:01;18.60;89.20
60473;DHT22;46318;52.716;6.444;2023-10-09T15:45:27;18.60;89.40
60473;DHT22;46318;52.716;6.444;2023-10-09T15:47:57;18.60;89.30
60473;DHT22;46318;52.716;6.444;2023-10-09T15:50:25;18.60;89.30
60473;DHT22;46318;52.716;6.444;2023-10-09T15:52:55;18.60;89.20
60473;DHT22;46318;52.716;6.444;2023-10-09T15:55:21;18.60;89.10
60473;DHT22;46318;52.716;6.444;2023-10-09T15:57:50;18.60;88.70
60473;DHT22;46318;52.716;6.444;2023-10-09T16:00:21;18.60;88.50
60473;DHT22;46318;52.716;6.444;2023-10-09T16:02:48;18.60;88.40
60473;DHT22;46318;52.716;6.444;2023-10-09T16:05:16;18.50;88.40
60473;DHT22;46318;52.716;6.444;2023-10-09T16:07:43;18.50;88.20
60473;DHT22;46318;52.716;6.444;2023-10-09T16:10:09;18.50;88.10
60473;DHT22;46318;52.716;6.444;2023-10-09T16:12:38;18.50;88.20
60473;DHT22;46318;52.716;6.444;2023-10-09T16:15:05;18.50;88.30
60473;DHT22;46318;52.716;6.444;2023-10-09T16:17:35;18.50;88.30
60473;DHT22;46318;52.716;6.444;2023-10-09T16:20:03;18.40;88.50
60473;DHT22;46318;52.716;6.444;2023-10-09T16:22:41;18.40;88.60
60473;DHT22;46318;52.716;6.444;2023-10-09T16:25:08;18.40;88.80
60473;DHT22;46318;52.716;6.444;2023-10-09T16:27:39;18.40;88.80
60473;DHT22;46318;52.716;6.444;2023-10-09T16:30:15;18.30;89.10
60473;DHT22;46318;52.716;6.444;2023-10-09T16:32:46;18.30;89.20
60473;DHT22;46318;52.716;6.444;2023-10-09T16:35:12;18.30;89.10